Time;durP1;ratioP1;P1;durP2;ratioP2;P2;SDS_P1;SDS_P2;PMS_P1;PMS_P2;Temp;Humidity;BMP_temperature;BMP_pressure;BME280_temperature;BME280_humidity;BME280_pressure;Samples;Min_cycle;Max_cycle;Signal;HPM_P1;HPM_P2
2023/07/26 00:01:14;;;;;;;5.82;1.75;;;;;;;;;;5049266;28;20222;-54
2023/07/26 00:03:40;;;;;;;1.58;1.33;;;;;;;;;;5051181;28;20241;-54
2023/07/26 00:06:06;;;;;;;4.88;1.27;;;;;;;;;;5056196;28;20470;-54
2023/07/26 00:08:32;;;;;;;3.05;1.20;;;;;;;;;;5043511;28;20195;-54
2023/07/26 00:10:58;;;;;;;5.55;1.40;;;;;;;;;;5048769;28;20190;-55
2023/07/26 00:13:24;;;;;;;3.38;1.20;;;;;;;;;;5051442;28;20198;-54
2023/07/26 00:15:50;;;;;;;3.03;1.25;;;;;;;;;;5054247;28;20194;-54
2023/07/26 00:18:16;;;;;;;5.65;1.48;;;;;;;;;;5050553;28;20199;-54
2023/07/26 00:20:42;;;;;;;2.10;1.17;;;;;;;;;;5056491;28;20180;-54
2023/07/26 00:23:08;;;;;;;3.53;1.23;;;;;;;;;;5053713;28;20190;-55
2023/07/26 00:25:34;;;;;;;7.50;1.35;;;;;;;;;;5055993;28;20194;-56
2023/07/26 00:28:00;;;;;;;1.98;1.30;;;;;;;;;;5047653;28;20179;-54
2023/07/26 00:30:26;;;;;;;4.32;1.30;;;;;;;;;;5050474;28;20491;-53
2023/07/26 00:32:52;;;;;;;1.52;1.00;;;;;;;;;;5049115;28;20741;-53
2023/07/26 00:35:19;;;;;;;2.80;1.40;;;;;;;;;;5052496;28;20182;-53
2023/07/26 00:37:45;;;;;;;3.50;1.30;;;;;;;;;;5050525;28;20207;-53
2023/07/26 00:40:11;;;;;;;5.18;1.40;;;;;;;;;;5047213;28;20183;-54
2023/07/26 00:42:37;;;;;;;6.13;1.40;;;;;;;;;;5042871;28;20216;-54
2023/07/26 00:45:03;;;;;;;3.55;1.35;;;;;;;;;;5055577;28;20206;-54
2023/07/26 00:47:30;;;;;;;2.90;1.50;;;;;;;;;;5050277;28;20183;-54
2023/07/26 00:49:56;;;;;;;5.43;1.30;;;;;;;;;;5054563;28;20237;-54
2023/07/26 00:52:23;;;;;;;2.60;1.33;;;;;;;;;;5050336;28;20258;-54
2023/07/26 00:54:49;;;;;;;2.97;1.40;;;;;;;;;;5050551;28;20191;-54
2023/07/26 00:57:15;;;;;;;4.38;1.27;;;;;;;;;;5052746;28;20215;-54
2023/07/26 00:59:41;;;;;;;4.53;1.17;;;;;;;;;;5054305;28;20183;-54
2023/07/26 01:02:07;;;;;;;5.60;1.50;;;;;;;;;;5052581;28;20441;-54
2023/07/26 01:04:33;;;;;;;3.05;1.27;;;;;;;;;;5046132;28;20183;-54
2023/07/26 01:07:01;;;;;;;2.45;1.40;;;;;;;;;;5047839;28;20187;-54
2023/07/26 01:09:46;;;;;;;3.35;1.40;;;;;;;;;;5050957;28;20172;-54
2023/07/26 01:12:17;;;;;;;2.38;1.38;;;;;;;;;;5052030;28;20171;-54
2023/07/26 01:14:48;;;;;;;4.82;1.73;;;;;;;;;;5048481;28;20450;-54
2023/07/26 01:17:14;;;;;;;4.85;1.50;;;;;;;;;;5054964;28;20207;-54
2023/07/26 01:19:41;;;;;;;2.80;1.63;;;;;;;;;;5049223;28;20190;-54
2023/07/26 01:22:07;;;;;;;2.42;1.40;;;;;;;;;;5045965;28;20626;-54
2023/07/26 01:24:33;;;;;;;1.85;1.25;;;;;;;;;;5052967;28;20286;-54
2023/07/26 01:26:59;;;;;;;3.40;1.35;;;;;;;;;;5048129;28;20259;-54
2023/07/26 01:29:25;;;;;;;1.83;1.45;;;;;;;;;;5046924;28;20190;-54
2023/07/26 01:31:52;;;;;;;6.75;1.50;;;;;;;;;;5054426;28;20199;-54
2023/07/26 01:34:19;;;;;;;5.63;1.23;;;;;;;;;;5052795;28;20179;-54
2023/07/26 01:36:45;;;;;;;2.58;1.33;;;;;;;;;;5049093;28;20283;-54
2023/07/26 01:39:11;;;;;;;8.15;1.40;;;;;;;;;;5042405;28;20220;-54
2023/07/26 01:41:38;;;;;;;1.90;1.13;;;;;;;;;;5047963;28;20194;-54
2023/07/26 01:44:04;;;;;;;5.00;1.17;;;;;;;;;;5049063;28;20175;-54
2023/07/26 01:46:30;;;;;;;2.97;1.55;;;;;;;;;;5052125;28;20175;-54
2023/07/26 01:48:56;;;;;;;1.58;1.10;;;;;;;;;;5052874;28;20305;-54
2023/07/26 01:51:22;;;;;;;1.40;1.30;;;;;;;;;;5047744;28;21552;-54
2023/07/26 01:53:48;;;;;;;2.63;1.30;;;;;;;;;;5048188;28;20191;-54
2023/07/26 01:56:14;;;;;;;1.90;1.50;;;;;;;;;;5042680;28;20183;-54
2023/07/26 01:58:40;;;;;;;3.05;1.42;;;;;;;;;;5045130;28;20211;-54
2023/07/26 02:01:06;;;;;;;3.15;1.30;;;;;;;;;;5048857;28;20624;-54
2023/07/26 02:03:32;;;;;;;2.92;1.52;;;;;;;;;;5045594;28;20193;-54
2023/07/26 02:05:58;;;;;;;2.65;1.35;;;;;;;;;;5050002;28;20180;-53
2023/07/26 02:08:24;;;;;;;1.55;1.08;;;;;;;;;;5052000;28;20189;-52
2023/07/26 02:10:50;;;;;;;5.10;1.30;;;;;;;;;;5049158;28;20211;-54
2023/07/26 02:13:16;;;;;;;1.80;1.27;;;;;;;;;;5052895;28;20210;-54
2023/07/26 02:15:42;;;;;;;4.03;1.10;;;;;;;;;;5046177;28;20187;-53
2023/07/26 02:18:08;;;;;;;0.70;0.68;;;;;;;;;;5051529;28;20585;-53
2023/07/26 02:20:34;;;;;;;2.92;1.00;;;;;;;;;;5049685;28;20183;-53
2023/07/26 02:23:00;;;;;;;5.05;1.40;;;;;;;;;;5056003;28;20172;-53
2023/07/26 02:25:26;;;;;;;2.42;1.00;;;;;;;;;;5053222;28;20191;-53
2023/07/26 02:27:52;;;;;;;1.90;1.10;;;;;;;;;;5050511;28;20197;-53
2023/07/26 02:30:18;;;;;;;3.60;1.23;;;;;;;;;;5050935;28;20218;-53
2023/07/26 02:32:44;;;;;;;1.40;1.15;;;;;;;;;;5053229;28;20183;-53
2023/07/26 02:35:10;;;;;;;1.45;0.93;;;;;;;;;;5053650;28;20448;-53
2023/07/26 02:37:36;;;;;;;2.33;1.40;;;;;;;;;;5049957;28;20211;-53
2023/07/26 02:40:02;;;;;;;6.05;1.05;;;;;;;;;;5040037;28;20191;-53
2023/07/26 02:42:28;;;;;;;1.80;1.10;;;;;;;;;;5050183;28;20494;-53
2023/07/26 02:44:54;;;;;;;2.10;1.20;;;;;;;;;;5052576;28;20474;-53
2023/07/26 02:47:20;;;;;;;4.95;1.15;;;;;;;;;;5044600;28;20188;-53
2023/07/26 02:49:47;;;;;;;4.72;1.52;;;;;;;;;;5049834;28;20556;-53
2023/07/26 02:52:13;;;;;;;2.17;1.40;;;;;;;;;;5054376;28;20190;-53
2023/07/26 02:54:39;;;;;;;3.05;1.58;;;;;;;;;;5045062;28;20183;-53
2023/07/26 02:57:05;;;;;;;1.10;1.00;;;;;;;;;;5052543;28;20581;-53
2023/07/26 02:59:31;;;;;;;2.55;1.20;;;;;;;;;;5054102;28;20186;-54
2023/07/26 03:01:57;;;;;;;3.17;1.25;;;;;;;;;;5051069;28;20459;-53
2023/07/26 03:04:23;;;;;;;2.95;0.85;;;;;;;;;;5048021;28;20431;-53
2023/07/26 03:06:50;;;;;;;1.17;1.08;;;;;;;;;;5043230;28;20566;-53
2023/07/26 03:09:16;;;;;;;4.10;1.30;;;;;;;;;;5056985;28;20579;-55
2023/07/26 03:11:42;;;;;;;4.88;1.20;;;;;;;;;;5056319;28;20283;-54
2023/07/26 03:14:08;;;;;;;3.13;1.65;;;;;;;;;;5057460;28;20555;-54
2023/07/26 03:16:34;;;;;;;4.05;1.15;;;;;;;;;;5054848;28;20195;-54
2023/07/26 03:19:00;;;;;;;2.15;1.17;;;;;;;;;;5056431;28;20206;-54
2023/07/26 03:21:26;;;;;;;2.92;1.23;;;;;;;;;;5054468;28;20179;-54
2023/07/26 03:23:52;;;;;;;2.00;1.25;;;;;;;;;;5072898;28;20194;-54
2023/07/26 03:26:18;;;;;;;4.10;1.30;;;;;;;;;;5048685;28;20254;-54
2023/07/26 03:28:44;;;;;;;3.00;1.40;;;;;;;;;;5056905;28;20187;-54
2023/07/26 03:31:10;;;;;;;3.30;1.08;;;;;;;;;;5056786;28;20249;-54
2023/07/26 03:33:36;;;;;;;1.92;0.98;;;;;;;;;;5057053;28;20183;-53
2023/07/26 03:36:02;;;;;;;1.92;0.93;;;;;;;;;;5049697;28;20179;-53
2023/07/26 03:38:28;;;;;;;3.13;1.05;;;;;;;;;;5055743;28;20500;-53
2023/07/26 03:40:53;;;;;;;1.75;0.90;;;;;;;;;;5052808;28;20167;-53
2023/07/26 03:43:19;;;;;;;3.58;1.45;;;;;;;;;;5056470;28;20570;-53
2023/07/26 03:45:45;;;;;;;5.80;1.33;;;;;;;;;;5046533;28;20183;-53
2023/07/26 03:48:11;;;;;;;4.18;1.55;;;;;;;;;;5046753;28;20198;-54
2023/07/26 03:50:37;;;;;;;4.55;1.52;;;;;;;;;;5048768;28;20187;-53
2023/07/26 03:53:03;;;;;;;1.70;1.17;;;;;;;;;;5059044;28;20187;-53
2023/07/26 03:55:29;;;;;;;3.95;1.30;;;;;;;;;;5055667;28;20272;-53
2023/07/26 03:57:57;;;;;;;3.20;1.50;;;;;;;;;;5054985;28;20230;-53
2023/07/26 04:00:23;;;;;;;4.65;1.65;;;;;;;;;;5053583;28;20176;-53
2023/07/26 04:02:49;;;;;;;8.68;1.60;;;;;;;;;;5051088;28;20606;-53
2023/07/26 04:05:15;;;;;;;3.83;1.52;;;;;;;;;;5055683;28;20179;-53
2023/07/26 04:07:40;;;;;;;8.50;1.77;;;;;;;;;;5053597;28;20187;-53
2023/07/26 04:10:07;;;;;;;2.95;1.60;;;;;;;;;;5047472;28;20198;-53
2023/07/26 04:12:33;;;;;;;3.72;1.50;;;;;;;;;;5046625;28;20563;-53
2023/07/26 04:14:58;;;;;;;4.75;1.35;;;;;;;;;;5052285;28;20255;-53
2023/07/26 04:17:24;;;;;;;3.10;1.45;;;;;;;;;;5053490;28;20313;-53
2023/07/26 04:19:52;;;;;;;3.22;1.30;;;;;;;;;;5050994;28;20557;-53
2023/07/26 04:22:18;;;;;;;5.47;1.45;;;;;;;;;;5061377;28;20269;-53
2023/07/26 04:24:45;;;;;;;5.78;1.60;;;;;;;;;;5059391;28;20294;-53
2023/07/26 04:27:11;;;;;;;2.28;1.20;;;;;;;;;;5055253;28;20491;-53
2023/07/26 04:29:37;;;;;;;7.70;1.60;;;;;;;;;;5050462;28;20184;-53
2023/07/26 04:32:03;;;;;;;7.45;1.48;;;;;;;;;;5038321;28;20207;-53
2023/07/26 04:34:29;;;;;;;4.28;1.08;;;;;;;;;;5048218;28;20195;-54
2023/07/26 04:36:55;;;;;;;2.42;1.30;;;;;;;;;;5054207;28;20517;-54
2023/07/26 04:39:21;;;;;;;4.15;1.60;;;;;;;;;;5054077;28;20487;-45
2023/07/26 04:41:47;;;;;;;4.28;1.25;;;;;;;;;;5053701;28;20205;-47
2023/07/26 04:44:13;;;;;;;6.22;1.25;;;;;;;;;;5054817;28;20175;-47
2023/07/26 04:46:39;;;;;;;5.80;2.17;;;;;;;;;;5052546;28;20191;-50
2023/07/26 04:49:05;;;;;;;2.67;1.48;;;;;;;;;;5054427;28;20570;-49
2023/07/26 04:51:31;;;;;;;5.25;1.48;;;;;;;;;;5053354;28;20187;-51
2023/07/26 04:53:57;;;;;;;7.00;1.60;;;;;;;;;;5061896;28;20195;-49
2023/07/26 04:56:25;;;;;;;3.38;1.52;;;;;;;;;;5054733;28;20198;-48
2023/07/26 04:58:51;;;;;;;3.78;1.33;;;;;;;;;;5055010;28;20523;-54
2023/07/26 05:01:17;;;;;;;5.70;1.38;;;;;;;;;;5047980;28;20282;-54
2023/07/26 05:03:43;;;;;;;4.75;1.50;;;;;;;;;;5052511;28;20279;-54
2023/07/26 05:06:11;;;;;;;6.22;1.63;;;;;;;;;;5055649;28;20266;-53
2023/07/26 05:08:37;;;;;;;4.70;1.63;;;;;;;;;;5074434;28;20277;-53
2023/07/26 05:11:03;;;;;;;4.03;1.70;;;;;;;;;;5073098;28;20205;-53
2023/07/26 05:13:29;;;;;;;5.63;1.33;;;;;;;;;;5054386;28;20175;-53
2023/07/26 05:15:55;;;;;;;5.93;1.40;;;;;;;;;;5053229;28;20194;-53
2023/07/26 05:18:21;;;;;;;3.83;1.42;;;;;;;;;;5049352;28;20612;-54
2023/07/26 05:20:50;;;;;;;6.63;1.42;;;;;;;;;;5040894;28;20508;-55
2023/07/26 05:23:16;;;;;;;17.25;2.70;;;;;;;;;;5066990;28;20186;-55
2023/07/26 05:25:42;;;;;;;7.50;2.17;;;;;;;;;;5074344;28;20248;-55
2023/07/26 05:28:08;;;;;;;8.20;2.05;;;;;;;;;;5073965;28;20550;-55
2023/07/26 05:30:38;;;;;;;6.30;2.33;;;;;;;;;;5073960;28;20183;-55
2023/07/26 05:33:04;;;;;;;11.95;2.00;;;;;;;;;;5064742;28;20187;-55
2023/07/26 05:35:30;;;;;;;11.70;1.60;;;;;;;;;;5053702;28;20215;-55
2023/07/26 05:37:56;;;;;;;5.18;1.52;;;;;;;;;;5044736;28;20319;-55
2023/07/26 05:40:22;;;;;;;4.45;1.50;;;;;;;;;;5049208;28;20538;-55
2023/07/26 05:42:48;;;;;;;7.82;1.50;;;;;;;;;;5044753;28;20213;-55
2023/07/26 05:45:14;;;;;;;4.38;1.50;;;;;;;;;;5053637;28;20208;-55
2023/07/26 05:47:40;;;;;;;5.25;1.92;;;;;;;;;;5043371;28;20215;-55
2023/07/26 05:50:07;;;;;;;5.95;1.95;;;;;;;;;;5048287;28;20507;-55
2023/07/26 05:52:32;;;;;;;11.43;2.47;;;;;;;;;;5060761;28;20189;-56
2023/07/26 05:54:58;;;;;;;7.00;1.58;;;;;;;;;;5057920;28;20285;-56
2023/07/26 05:57:24;;;;;;;4.03;1.50;;;;;;;;;;5049108;28;20207;-56
2023/07/26 05:59:50;;;;;;;4.90;1.40;;;;;;;;;;5053274;28;20570;-56
2023/07/26 06:02:16;;;;;;;6.30;1.60;;;;;;;;;;5048599;28;20184;-55
2023/07/26 06:04:43;;;;;;;4.93;1.75;;;;;;;;;;5053756;28;20450;-55
2023/07/26 06:07:09;;;;;;;4.07;1.67;;;;;;;;;;5049659;28;20221;-55
2023/07/26 06:09:34;;;;;;;4.13;1.75;;;;;;;;;;5049128;28;20908;-55
2023/07/26 06:12:00;;;;;;;3.60;1.35;;;;;;;;;;5048976;28;20640;-55
2023/07/26 06:14:26;;;;;;;4.30;1.60;;;;;;;;;;5049770;28;20180;-55
2023/07/26 06:16:53;;;;;;;3.53;1.40;;;;;;;;;;5053178;28;20198;-55
2023/07/26 06:19:19;;;;;;;3.33;1.30;;;;;;;;;;5049820;28;20208;-56
2023/07/26 06:21:45;;;;;;;4.88;1.50;;;;;;;;;;5054599;28;20191;-56
2023/07/26 06:24:11;;;;;;;4.00;1.27;;;;;;;;;;5050605;28;20195;-56
2023/07/26 06:26:36;;;;;;;3.53;1.35;;;;;;;;;;5054079;28;20190;-56
2023/07/26 06:29:02;;;;;;;3.30;1.23;;;;;;;;;;5050234;28;20204;-56
2023/07/26 06:31:28;;;;;;;3.53;1.02;;;;;;;;;;5046193;28;20590;-56
2023/07/26 06:33:54;;;;;;;1.20;1.10;;;;;;;;;;5053636;28;20194;-55
2023/07/26 06:36:20;;;;;;;2.60;1.50;;;;;;;;;;5057617;28;20184;-55
2023/07/26 06:38:46;;;;;;;2.40;1.58;;;;;;;;;;5051941;28;20214;-55
2023/07/26 06:41:12;;;;;;;1.85;1.00;;;;;;;;;;5046082;28;20199;-55
2023/07/26 06:43:38;;;;;;;5.18;1.50;;;;;;;;;;5057211;28;20184;-56
2023/07/26 06:46:04;;;;;;;2.67;1.17;;;;;;;;;;5053141;28;20187;-56
2023/07/26 06:48:30;;;;;;;3.05;1.00;;;;;;;;;;5053835;28;20183;-55
2023/07/26 06:50:56;;;;;;;6.38;1.38;;;;;;;;;;5054150;28;20428;-55
2023/07/26 06:53:22;;;;;;;2.83;1.05;;;;;;;;;;5071056;28;20206;-55
2023/07/26 06:55:48;;;;;;;6.10;1.63;;;;;;;;;;5049692;28;20565;-56
2023/07/26 06:58:13;;;;;;;1.50;1.08;;;;;;;;;;5053015;28;20826;-56
2023/07/26 07:00:39;;;;;;;2.30;1.00;;;;;;;;;;5053738;28;20274;-56
2023/07/26 07:03:05;;;;;;;1.52;0.90;;;;;;;;;;5052805;28;20189;-56
2023/07/26 07:05:34;;;;;;;2.72;1.08;;;;;;;;;;5054543;28;20195;-56
2023/07/26 07:07:59;;;;;;;2.10;0.88;;;;;;;;;;5055648;28;20826;-56
2023/07/26 07:10:25;;;;;;;1.40;1.00;;;;;;;;;;5046607;28;20217;-56
2023/07/26 07:12:51;;;;;;;2.40;1.17;;;;;;;;;;5051338;28;20265;-56
2023/07/26 07:15:17;;;;;;;1.33;0.95;;;;;;;;;;5054602;28;20187;-56
2023/07/26 07:17:43;;;;;;;2.10;1.00;;;;;;;;;;5056669;28;20206;-56
2023/07/26 07:20:10;;;;;;;1.48;0.82;;;;;;;;;;5055322;28;20539;-56
2023/07/26 07:22:36;;;;;;;2.95;1.02;;;;;;;;;;5066021;28;20174;-56
2023/07/26 07:25:02;;;;;;;1.02;0.88;;;;;;;;;;5076702;28;20435;-56
2023/07/26 07:27:28;;;;;;;1.30;0.93;;;;;;;;;;5076863;28;20932;-56
2023/07/26 07:29:54;;;;;;;0.80;0.80;;;;;;;;;;5061297;28;20313;-56
2023/07/26 07:32:20;;;;;;;1.90;0.98;;;;;;;;;;5053422;28;20194;-56
2023/07/26 07:34:46;;;;;;;1.60;1.00;;;;;;;;;;5056465;28;20183;-56
2023/07/26 07:37:12;;;;;;;1.50;1.00;;;;;;;;;;5052467;28;20188;-56
2023/07/26 07:39:38;;;;;;;2.70;0.88;;;;;;;;;;5058585;28;20190;-56
2023/07/26 07:42:04;;;;;;;3.05;0.77;;;;;;;;;;5054293;28;20560;-56
2023/07/26 07:44:30;;;;;;;1.23;1.00;;;;;;;;;;5051523;28;20179;-56
2023/07/26 07:46:57;;;;;;;2.35;0.90;;;;;;;;;;5049793;28;20454;-56
2023/07/26 07:49:23;;;;;;;1.33;0.90;;;;;;;;;;5048859;28;20179;-56
2023/07/26 07:51:49;;;;;;;4.03;0.90;;;;;;;;;;5054731;28;20190;-56
2023/07/26 07:54:15;;;;;;;1.10;0.90;;;;;;;;;;5040277;28;20187;-56
2023/07/26 07:56:41;;;;;;;0.73;0.70;;;;;;;;;;5039221;28;20195;-56
2023/07/26 07:59:07;;;;;;;1.90;0.90;;;;;;;;;;5038172;28;20208;-56
2023/07/26 08:01:33;;;;;;;1.38;0.93;;;;;;;;;;5049687;28;20198;-56
2023/07/26 08:03:59;;;;;;;3.47;1.08;;;;;;;;;;5051073;28;20180;-56
2023/07/26 08:06:29;;;;;;;1.52;1.10;;;;;;;;;;5054158;28;20179;-56
2023/07/26 08:08:55;;;;;;;0.85;0.70;;;;;;;;;;5054645;28;20398;-56
2023/07/26 08:11:21;;;;;;;1.27;0.90;;;;;;;;;;5050215;28;20648;-56
2023/07/26 08:13:47;;;;;;;2.53;0.80;;;;;;;;;;5051684;28;20248;-55
2023/07/26 08:16:13;;;;;;;2.05;0.70;;;;;;;;;;5054774;28;20487;-55
2023/07/26 08:18:39;;;;;;;1.02;0.60;;;;;;;;;;5054839;28;20728;-55
2023/07/26 08:21:05;;;;;;;1.75;0.70;;;;;;;;;;5046619;28;20614;-56
2023/07/26 08:23:31;;;;;;;1.00;0.70;;;;;;;;;;5069166;28;20224;-56
2023/07/26 08:26:02;;;;;;;2.20;0.88;;;;;;;;;;5046908;28;20493;-56
2023/07/26 08:28:28;;;;;;;1.67;0.70;;;;;;;;;;5047825;28;20198;-56
2023/07/26 08:30:54;;;;;;;1.58;1.00;;;;;;;;;;5038759;28;20570;-56
2023/07/26 08:33:20;;;;;;;1.90;0.90;;;;;;;;;;5035836;28;20215;-56
2023/07/26 08:35:47;;;;;;;1.05;0.90;;;;;;;;;;5041910;28;20223;-56
2023/07/26 08:38:13;;;;;;;7.50;1.23;;;;;;;;;;5036710;28;20272;-53
2023/07/26 08:40:43;;;;;;;4.43;1.10;;;;;;;;;;5037200;28;20221;-53
2023/07/26 08:43:09;;;;;;;3.60;1.40;;;;;;;;;;5036586;28;20179;-53
2023/07/26 08:45:35;;;;;;;3.65;1.10;;;;;;;;;;5045073;28;20449;-53
2023/07/26 08:48:02;;;;;;;3.33;1.00;;;;;;;;;;5047887;28;20213;-53
2023/07/26 08:50:28;;;;;;;5.28;1.00;;;;;;;;;;5053415;28;20187;-54
2023/07/26 08:52:53;;;;;;;2.92;1.55;;;;;;;;;;5042384;28;20183;-51
2023/07/26 08:55:19;;;;;;;3.30;1.00;;;;;;;;;;5054261;28;20179;-48
2023/07/26 08:57:45;;;;;;;4.68;0.82;;;;;;;;;;5046096;28;20218;-50
2023/07/26 09:00:12;;;;;;;2.60;1.15;;;;;;;;;;5052220;28;20183;-56
2023/07/26 09:02:40;;;;;;;5.95;1.25;;;;;;;;;;5049733;28;20278;-53
2023/07/26 09:05:06;;;;;;;2.10;0.80;;;;;;;;;;5055095;28;20175;-54
2023/07/26 09:07:32;;;;;;;3.00;0.90;;;;;;;;;;5054826;28;20182;-54
2023/07/26 09:09:59;;;;;;;2.10;0.77;;;;;;;;;;5048564;28;20191;-54
2023/07/26 09:12:26;;;;;;;1.38;0.70;;;;;;;;;;5053268;28;20910;-54
2023/07/26 09:14:53;;;;;;;0.43;0.43;;;;;;;;;;5048392;28;20192;-55
2023/07/26 09:17:19;;;;;;;1.15;0.80;;;;;;;;;;5052102;28;20474;-55
2023/07/26 09:19:45;;;;;;;1.08;0.73;;;;;;;;;;5051059;28;20187;-54
2023/07/26 09:22:12;;;;;;;1.02;0.90;;;;;;;;;;5060435;28;20202;-54
2023/07/26 09:24:41;;;;;;;1.58;0.70;;;;;;;;;;5074306;28;20524;-55
2023/07/26 09:27:09;;;;;;;2.63;0.70;;;;;;;;;;5074914;28;20175;-55
2023/07/26 09:29:35;;;;;;;1.48;0.77;;;;;;;;;;5052030;28;20222;-55
2023/07/26 09:32:02;;;;;;;1.02;0.70;;;;;;;;;;5053669;28;20509;-53
2023/07/26 09:34:29;;;;;;;0.70;0.60;;;;;;;;;;5054685;28;20175;-54
2023/07/26 09:36:56;;;;;;;2.08;0.80;;;;;;;;;;5054296;28;20182;-54
2023/07/26 09:39:24;;;;;;;1.30;0.80;;;;;;;;;;5053992;28;20207;-54
2023/07/26 09:41:51;;;;;;;1.63;0.68;;;;;;;;;;5052436;28;20179;-54
2023/07/26 09:44:21;;;;;;;3.05;0.77;;;;;;;;;;5046863;28;20258;-54
2023/07/26 09:46:48;;;;;;;1.02;0.60;;;;;;;;;;5052554;28;20226;-54
2023/07/26 09:49:14;;;;;;;1.00;0.75;;;;;;;;;;5053688;28;20189;-54
2023/07/26 09:51:41;;;;;;;3.13;0.95;;;;;;;;;;5052500;28;20266;-54
2023/07/26 09:54:08;;;;;;;2.25;0.75;;;;;;;;;;5074238;28;20212;-54
2023/07/26 09:56:34;;;;;;;1.63;0.70;;;;;;;;;;5050987;28;20193;-54
2023/07/26 09:59:00;;;;;;;2.88;0.90;;;;;;;;;;5053343;28;20198;-54
2023/07/26 10:01:29;;;;;;;0.70;0.70;;;;;;;;;;5044801;28;20180;-54
2023/07/26 10:03:56;;;;;;;3.17;0.93;;;;;;;;;;5047960;28;20179;-54
2023/07/26 10:06:24;;;;;;;1.20;0.70;;;;;;;;;;5049022;28;20564;-54
2023/07/26 10:08:50;;;;;;;0.77;0.70;;;;;;;;;;5049856;28;20180;-54
2023/07/26 10:11:17;;;;;;;2.05;0.85;;;;;;;;;;5053614;28;20270;-54
2023/07/26 10:13:44;;;;;;;2.97;1.00;;;;;;;;;;5058424;28;20186;-54
2023/07/26 10:16:10;;;;;;;2.92;0.73;;;;;;;;;;5047197;28;20326;-53
2023/07/26 10:18:36;;;;;;;1.10;0.80;;;;;;;;;;5046691;28;20302;-54
2023/07/26 10:21:03;;;;;;;1.98;1.45;;;;;;;;;;5045745;28;20195;-54
2023/07/26 10:23:30;;;;;;;0.85;0.60;;;;;;;;;;5068646;28;20171;-54
2023/07/26 10:25:57;;;;;;;2.20;0.95;;;;;;;;;;5052608;28;20232;-54
2023/07/26 10:28:24;;;;;;;1.30;1.00;;;;;;;;;;5051591;28;20264;-54
2023/07/26 10:30:51;;;;;;;2.85;0.60;;;;;;;;;;5053445;28;20326;-54
2023/07/26 10:33:17;;;;;;;1.85;0.93;;;;;;;;;;5069231;28;20182;-54
2023/07/26 10:35:43;;;;;;;0.73;0.70;;;;;;;;;;5052246;28;20451;-54
2023/07/26 10:38:09;;;;;;;0.80;0.70;;;;;;;;;;5057272;28;20493;-54
2023/07/26 10:40:36;;;;;;;1.17;0.90;;;;;;;;;;5051398;28;20610;-54
2023/07/26 10:43:20;;;;;;;1.63;1.25;;;;;;;;;;5054863;28;20175;-54
2023/07/26 10:45:46;;;;;;;1.08;0.90;;;;;;;;;;5055572;28;20191;-54
2023/07/26 10:48:31;;;;;;;1.08;0.90;;;;;;;;;;5051910;28;20178;-54
2023/07/26 10:50:57;;;;;;;0.70;0.70;;;;;;;;;;5052908;28;20232;-54
2023/07/26 10:53:29;;;;;;;1.85;0.90;;;;;;;;;;5049261;28;21524;-54
2023/07/26 10:56:09;;;;;;;1.73;1.20;;;;;;;;;;5056110;28;20193;-54
2023/07/26 10:58:35;;;;;;;2.85;0.90;;;;;;;;;;5059706;28;20519;-54
2023/07/26 11:01:02;;;;;;;1.92;1.00;;;;;;;;;;5052653;28;20182;-54
2023/07/26 11:03:29;;;;;;;2.53;0.90;;;;;;;;;;5047239;28;20188;-55
2023/07/26 11:05:58;;;;;;;1.15;1.00;;;;;;;;;;5055492;28;20317;-54
2023/07/26 11:08:41;;;;;;;3.42;1.10;;;;;;;;;;5053556;28;20482;-54
2023/07/26 11:11:07;;;;;;;0.93;0.88;;;;;;;;;;5055539;28;20182;-54
2023/07/26 11:13:33;;;;;;;2.15;0.93;;;;;;;;;;5056521;28;20209;-54
2023/07/26 11:16:01;;;;;;;11.43;2.38;;;;;;;;;;5053703;28;20578;-54
2023/07/26 11:18:27;;;;;;;8.63;1.25;;;;;;;;;;5056931;28;20290;-54
2023/07/26 11:20:54;;;;;;;3.95;1.00;;;;;;;;;;5055970;28;20187;-54
2023/07/26 11:23:27;;;;;;;1.83;0.90;;;;;;;;;;5067861;28;20574;-54
2023/07/26 11:25:54;;;;;;;7.18;1.00;;;;;;;;;;5056086;28;20179;-54
2023/07/26 11:28:21;;;;;;;1.05;0.95;;;;;;;;;;5077155;28;20182;-54
2023/07/26 11:30:50;;;;;;;4.88;1.25;;;;;;;;;;5059835;28;20203;-54
2023/07/26 11:33:32;;;;;;;3.42;1.02;;;;;;;;;;5056890;28;20182;-54
2023/07/26 11:35:59;;;;;;;1.70;1.17;;;;;;;;;;5056834;28;20183;-54
2023/07/26 11:38:26;;;;;;;2.25;1.05;;;;;;;;;;5056940;28;20290;-54
2023/07/26 11:40:58;;;;;;;1.10;0.95;;;;;;;;;;5053731;28;20225;-54
2023/07/26 11:43:25;;;;;;;0.80;0.80;;;;;;;;;;5055641;28;20446;-54
2023/07/26 11:45:51;;;;;;;1.23;1.00;;;;;;;;;;5054476;28;20205;-54
2023/07/26 11:48:18;;;;;;;1.15;0.95;;;;;;;;;;5051175;28;20210;-54
2023/07/26 11:50:44;;;;;;;0.90;0.80;;;;;;;;;;5055016;28;20197;-55
2023/07/26 11:53:11;;;;;;;1.13;0.77;;;;;;;;;;5068037;28;20269;-54
2023/07/26 11:55:41;;;;;;;1.15;0.82;;;;;;;;;;5051261;28;20241;-54
2023/07/26 11:58:08;;;;;;;1.05;0.80;;;;;;;;;;5048151;28;20237;-54
2023/07/26 12:00:38;;;;;;;1.85;1.00;;;;;;;;;;5055136;28;20187;-54
2023/07/26 12:03:05;;;;;;;0.90;0.90;;;;;;;;;;5048290;28;20729;-54
2023/07/26 12:05:31;;;;;;;1.00;0.90;;;;;;;;;;5052171;28;20187;-54
2023/07/26 12:07:58;;;;;;;1.35;1.05;;;;;;;;;;5055014;28;20206;-54
2023/07/26 12:10:37;;;;;;;1.65;1.17;;;;;;;;;;5047470;28;20520;-54
2023/07/26 12:13:08;;;;;;;1.05;1.00;;;;;;;;;;5055410;28;20274;-54
2023/07/26 12:15:55;;;;;;;0.80;0.75;;;;;;;;;;5053724;28;20589;-54
2023/07/26 12:18:21;;;;;;;0.60;0.60;;;;;;;;;;5046175;28;20223;-54
2023/07/26 12:20:57;;;;;;;1.08;0.90;;;;;;;;;;5053417;28;20187;-54
2023/07/26 12:23:24;;;;;;;0.75;0.63;;;;;;;;;;5052584;28;20190;-54
2023/07/26 12:25:54;;;;;;;1.30;1.00;;;;;;;;;;5045875;28;20227;-54
2023/07/26 12:28:20;;;;;;;0.88;0.88;;;;;;;;;;5061424;28;20254;-54
2023/07/26 12:30:56;;;;;;;1.00;0.90;;;;;;;;;;5049655;28;20191;-54
2023/07/26 12:33:22;;;;;;;0.80;0.80;;;;;;;;;;5054757;28;20189;-53
2023/07/26 12:35:51;;;;;;;3.83;1.00;;;;;;;;;;5055007;28;20194;-53
2023/07/26 12:38:18;;;;;;;0.70;0.70;;;;;;;;;;5049245;28;20260;-53
2023/07/26 12:40:44;;;;;;;0.80;0.80;;;;;;;;;;5049429;28;20550;-54
2023/07/26 12:43:20;;;;;;;1.27;0.80;;;;;;;;;;5052764;28;20179;-54
2023/07/26 12:45:46;;;;;;;1.00;0.90;;;;;;;;;;5041916;28;20249;-53
2023/07/26 12:48:12;;;;;;;1.30;0.90;;;;;;;;;;5048498;28;20191;-54
2023/07/26 12:50:41;;;;;;;0.90;0.85;;;;;;;;;;5046049;28;20194;-54
2023/07/26 12:53:08;;;;;;;3.75;0.95;;;;;;;;;;5044573;28;20211;-54
2023/07/26 12:55:34;;;;;;;2.22;0.90;;;;;;;;;;5046887;28;20183;-54
2023/07/26 12:58:00;;;;;;;2.15;1.10;;;;;;;;;;5053291;28;20206;-53
2023/07/26 13:00:26;;;;;;;1.35;0.85;;;;;;;;;;5054339;28;20179;-54
2023/07/26 13:02:52;;;;;;;1.85;1.10;;;;;;;;;;5047443;28;20187;-53
2023/07/26 13:05:21;;;;;;;3.13;1.42;;;;;;;;;;5055497;28;20175;-53
2023/07/26 13:07:50;;;;;;;0.93;0.88;;;;;;;;;;5050407;28;20462;-53
2023/07/26 13:10:16;;;;;;;2.72;1.10;;;;;;;;;;5052953;28;20186;-53
2023/07/26 13:12:42;;;;;;;1.35;1.25;;;;;;;;;;5054350;28;20190;-54
2023/07/26 13:15:08;;;;;;;2.40;1.15;;;;;;;;;;5055436;28;20175;-54
2023/07/26 13:17:34;;;;;;;3.63;1.40;;;;;;;;;;5054762;28;20187;-54
2023/07/26 13:20:00;;;;;;;6.38;1.30;;;;;;;;;;5044046;28;20247;-54
2023/07/26 13:22:25;;;;;;;5.53;1.70;;;;;;;;;;5048097;28;20199;-54
2023/07/26 13:24:51;;;;;;;1.13;0.90;;;;;;;;;;5051310;28;20614;-54
2023/07/26 13:27:17;;;;;;;3.72;1.17;;;;;;;;;;5066575;28;20193;-54
2023/07/26 13:29:43;;;;;;;2.45;1.15;;;;;;;;;;5062138;28;20559;-54
2023/07/26 13:32:09;;;;;;;3.17;1.20;;;;;;;;;;5045993;28;20200;-54
2023/07/26 13:34:35;;;;;;;2.13;1.20;;;;;;;;;;5047872;28;20477;-54
2023/07/26 13:37:01;;;;;;;1.85;1.02;;;;;;;;;;5039260;28;20183;-54
2023/07/26 13:39:27;;;;;;;0.95;0.95;;;;;;;;;;5046901;28;20286;-53
2023/07/26 13:41:53;;;;;;;1.38;1.05;;;;;;;;;;5049967;28;20451;-54
2023/07/26 13:44:19;;;;;;;1.95;0.90;;;;;;;;;;5047696;28;20423;-54
2023/07/26 13:46:45;;;;;;;1.85;1.40;;;;;;;;;;5052960;28;20178;-53
2023/07/26 13:49:11;;;;;;;1.10;1.00;;;;;;;;;;5053088;28;20214;-54
2023/07/26 13:51:37;;;;;;;2.78;1.25;;;;;;;;;;5047214;28;20214;-54
2023/07/26 13:54:03;;;;;;;1.10;1.00;;;;;;;;;;5054442;28;20179;-54
2023/07/26 13:56:29;;;;;;;2.03;1.02;;;;;;;;;;5053566;28;20179;-55
2023/07/26 13:58:55;;;;;;;2.60;1.17;;;;;;;;;;5047562;28;20301;-54
2023/07/26 14:01:22;;;;;;;1.55;1.10;;;;;;;;;;5051899;28;20175;-54
2023/07/26 14:03:48;;;;;;;1.73;1.08;;;;;;;;;;5038562;28;20187;-54
2023/07/26 14:06:14;;;;;;;1.67;0.95;;;;;;;;;;5039891;28;20447;-54
2023/07/26 14:08:40;;;;;;;1.35;1.05;;;;;;;;;;5049601;28;20490;-54
2023/07/26 14:11:06;;;;;;;3.40;1.20;;;;;;;;;;5051332;28;20216;-54
2023/07/26 14:13:32;;;;;;;3.20;1.42;;;;;;;;;;5043685;28;20252;-54
2023/07/26 14:15:58;;;;;;;1.27;1.17;;;;;;;;;;5054087;28;20194;-54
2023/07/26 14:18:24;;;;;;;1.60;1.42;;;;;;;;;;5051891;28;20466;-54
2023/07/26 14:20:50;;;;;;;2.28;1.40;;;;;;;;;;5057160;28;20176;-54
2023/07/26 14:23:16;;;;;;;1.65;1.20;;;;;;;;;;5048714;28;20198;-54
2023/07/26 14:25:42;;;;;;;2.30;1.27;;;;;;;;;;5048415;28;20559;-54
2023/07/26 14:28:08;;;;;;;1.50;1.15;;;;;;;;;;5052075;28;20578;-53
2023/07/26 14:30:34;;;;;;;1.60;0.90;;;;;;;;;;5065532;28;20820;-53
2023/07/26 14:33:00;;;;;;;1.88;1.25;;;;;;;;;;5052758;28;20179;-54
2023/07/26 14:35:26;;;;;;;0.90;0.90;;;;;;;;;;5050841;28;20615;-53
2023/07/26 14:37:52;;;;;;;1.67;1.10;;;;;;;;;;5051607;28;20621;-53
2023/07/26 14:40:18;;;;;;;1.40;1.10;;;;;;;;;;5051826;28;20183;-53